sensor_id;sensor_type;location;lat;lon;timestamp;P1;durP1;ratioP1;P2;durP2;ratioP2
2123;SDS011;1068;52.460;13.528;2023-03-05T00:01:15;6.90;;;3.40;;
2123;SDS011;1068;52.460;13.528;2023-03-05T00:03:43;8.52;;;4.38;;
2123;SDS011;1068;52.460;13.528;2023-03-05T00:06:11;7.43;;;4.00;;
2123;SDS011;1068;52.460;13.528;2023-03-05T00:08:38;8.67;;;3.30;;
2123;SDS011;1068;52.460;13.528;2023-03-05T00:11:05;10.63;;;3.47;;
2123;SDS011;1068;52.460;13.528;2023-03-05T00:13:33;10.93;;;4.78;;
2123;SDS011;1068;52.460;13.528;2023-03-05T00:16:01;7.45;;;2.80;;
2123;SDS011;1068;52.460;13.528;2023-03-05T00:18:28;8.33;;;3.10;;
2123;SDS011;1068;52.460;13.528;2023-03-05T00:20:55;9.67;;;3.67;;
2123;SDS011;1068;52.460;13.528;2023-03-05T00:23:24;13.88;;;4.25;;
2123;SDS011;1068;52.460;13.528;2023-03-05T00:25:51;7.32;;;3.45;;
2123;SDS011;1068;52.460;13.528;2023-03-05T00:28:18;13.88;;;3.55;;
2123;SDS011;1068;52.460;13.528;2023-03-05T00:30:45;16.33;;;3.30;;
2123;SDS011;1068;52.460;13.528;2023-03-05T00:33:12;7.67;;;3.47;;
2123;SDS011;1068;52.460;13.528;2023-03-05T00:35:39;11.18;;;3.83;;
2123;SDS011;1068;52.460;13.528;2023-03-05T00:38:06;7.67;;;3.07;;
2123;SDS011;1068;52.460;13.528;2023-03-05T00:40:38;11.45;;;3.08;;
2123;SDS011;1068;52.460;13.528;2023-03-05T00:43:06;12.35;;;3.50;;
2123;SDS011;1068;52.460;13.528;2023-03-05T00:45:33;6.65;;;2.90;;
2123;SDS011;1068;52.460;13.528;2023-03-05T00:48:00;12.52;;;4.05;;
2123;SDS011;1068;52.460;13.528;2023-03-05T00:50:27;9.23;;;3.85;;
2123;SDS011;1068;52.460;13.528;2023-03-05T00:52:54;12.32;;;3.25;;
2123;SDS011;1068;52.460;13.528;2023-03-05T00:55:21;9.73;;;3.50;;
2123;SDS011;1068;52.460;13.528;2023-03-05T00:57:50;11.73;;;3.10;;
2123;SDS011;1068;52.460;13.528;2023-03-05T01:00:17;7.95;;;2.42;;
2123;SDS011;1068;52.460;13.528;2023-03-05T01:02:44;13.48;;;3.05;;
2123;SDS011;1068;52.460;13.528;2023-03-05T01:05:11;8.10;;;2.90;;
2123;SDS011;1068;52.460;13.528;2023-03-05T01:07:39;16.02;;;3.58;;
2123;SDS011;1068;52.460;13.528;2023-03-05T01:10:10;9.07;;;2.50;;
2123;SDS011;1068;52.460;13.528;2023-03-05T01:12:37;10.15;;;2.33;;
2123;SDS011;1068;52.460;13.528;2023-03-05T01:15:06;12.32;;;2.95;;
2123;SDS011;1068;52.460;13.528;2023-03-05T01:17:33;15.60;;;3.67;;
2123;SDS011;1068;52.460;13.528;2023-03-05T01:20:00;11.18;;;3.95;;
2123;SDS011;1068;52.460;13.528;2023-03-05T01:22:29;10.32;;;3.10;;
2123;SDS011;1068;52.460;13.528;2023-03-05T01:24:56;11.82;;;3.90;;
2123;SDS011;1068;52.460;13.528;2023-03-05T01:27:23;8.75;;;2.95;;
2123;SDS011;1068;52.460;13.528;2023-03-05T01:29:50;15.40;;;3.65;;
2123;SDS011;1068;52.460;13.528;2023-03-05T01:32:19;11.50;;;2.92;;
2123;SDS011;1068;52.460;13.528;2023-03-05T01:34:46;7.57;;;3.20;;
2123;SDS011;1068;52.460;13.528;2023-03-05T01:37:13;9.85;;;2.95;;
2123;SDS011;1068;52.460;13.528;2023-03-05T01:39:40;9.95;;;4.00;;
2123;SDS011;1068;52.460;13.528;2023-03-05T01:42:07;8.75;;;2.75;;
2123;SDS011;1068;52.460;13.528;2023-03-05T01:44:34;12.13;;;3.15;;
2123;SDS011;1068;52.460;13.528;2023-03-05T01:47:01;15.88;;;3.45;;
2123;SDS011;1068;52.460;13.528;2023-03-05T01:49:31;11.80;;;4.32;;
2123;SDS011;1068;52.460;13.528;2023-03-05T01:52:00;15.85;;;2.63;;
2123;SDS011;1068;52.460;13.528;2023-03-05T01:54:30;9.88;;;2.70;;
2123;SDS011;1068;52.460;13.528;2023-03-05T01:56:59;7.40;;;3.30;;
2123;SDS011;1068;52.460;13.528;2023-03-05T01:59:27;14.38;;;2.80;;
2123;SDS011;1068;52.460;13.528;2023-03-05T02:01:55;6.38;;;2.20;;
2123;SDS011;1068;52.460;13.528;2023-03-05T02:04:25;7.25;;;3.22;;
2123;SDS011;1068;52.460;13.528;2023-03-05T02:06:56;9.70;;;2.03;;
2123;SDS011;1068;52.460;13.528;2023-03-05T02:09:23;12.18;;;2.10;;
2123;SDS011;1068;52.460;13.528;2023-03-05T02:11:52;6.03;;;2.50;;
2123;SDS011;1068;52.460;13.528;2023-03-05T02:14:19;8.43;;;2.17;;
2123;SDS011;1068;52.460;13.528;2023-03-05T02:16:48;7.03;;;2.85;;
2123;SDS011;1068;52.460;13.528;2023-03-05T02:19:15;2.60;;;1.80;;
2123;SDS011;1068;52.460;13.528;2023-03-05T02:21:44;8.43;;;2.40;;
2123;SDS011;1068;52.460;13.528;2023-03-05T02:24:12;7.97;;;1.75;;
2123;SDS011;1068;52.460;13.528;2023-03-05T02:26:39;5.97;;;1.95;;
2123;SDS011;1068;52.460;13.528;2023-03-05T02:29:08;8.10;;;1.80;;
2123;SDS011;1068;52.460;13.528;2023-03-05T02:31:36;6.68;;;1.75;;
2123;SDS011;1068;52.460;13.528;2023-03-05T02:34:04;10.90;;;2.28;;
2123;SDS011;1068;52.460;13.528;2023-03-05T02:36:31;4.80;;;1.50;;
2123;SDS011;1068;52.460;13.528;2023-03-05T02:38:59;3.50;;;1.58;;
2123;SDS011;1068;52.460;13.528;2023-03-05T02:41:27;4.22;;;1.73;;
2123;SDS011;1068;52.460;13.528;2023-03-05T02:43:54;5.55;;;1.42;;
2123;SDS011;1068;52.460;13.528;2023-03-05T02:46:21;15.98;;;2.72;;
2123;SDS011;1068;52.460;13.528;2023-03-05T02:48:48;4.65;;;1.80;;
2123;SDS011;1068;52.460;13.528;2023-03-05T02:51:16;2.65;;;1.45;;
2123;SDS011;1068;52.460;13.528;2023-03-05T02:53:43;4.82;;;1.77;;
2123;SDS011;1068;52.460;13.528;2023-03-05T02:56:11;2.85;;;1.38;;
2123;SDS011;1068;52.460;13.528;2023-03-05T02:58:38;3.70;;;1.65;;
2123;SDS011;1068;52.460;13.528;2023-03-05T03:01:06;3.25;;;1.70;;
2123;SDS011;1068;52.460;13.528;2023-03-05T03:03:35;7.10;;;1.52;;
2123;SDS011;1068;52.460;13.528;2023-03-05T03:06:02;7.78;;;1.65;;
2123;SDS011;1068;52.460;13.528;2023-03-05T03:08:29;3.65;;;1.40;;
2123;SDS011;1068;52.460;13.528;2023-03-05T03:11:02;3.90;;;2.35;;
2123;SDS011;1068;52.460;13.528;2023-03-05T03:13:30;7.28;;;1.42;;
2123;SDS011;1068;52.460;13.528;2023-03-05T03:16:00;5.43;;;1.52;;
2123;SDS011;1068;52.460;13.528;2023-03-05T03:18:27;4.22;;;1.60;;
2123;SDS011;1068;52.460;13.528;2023-03-05T03:20:54;4.68;;;1.92;;
2123;SDS011;1068;52.460;13.528;2023-03-05T03:23:21;5.55;;;1.92;;
2123;SDS011;1068;52.460;13.528;2023-03-05T03:25:49;2.80;;;1.48;;
2123;SDS011;1068;52.460;13.528;2023-03-05T03:28:16;5.03;;;1.77;;
2123;SDS011;1068;52.460;13.528;2023-03-05T03:30:44;2.28;;;1.40;;
2123;SDS011;1068;52.460;13.528;2023-03-05T03:33:11;7.55;;;1.90;;
2123;SDS011;1068;52.460;13.528;2023-03-05T03:35:38;7.05;;;1.83;;
2123;SDS011;1068;52.460;13.528;2023-03-05T03:38:05;3.85;;;1.38;;
2123;SDS011;1068;52.460;13.528;2023-03-05T03:40:32;5.65;;;1.55;;
2123;SDS011;1068;52.460;13.528;2023-03-05T03:42:59;3.67;;;1.60;;
2123;SDS011;1068;52.460;13.528;2023-03-05T03:45:26;5.75;;;2.00;;
2123;SDS011;1068;52.460;13.528;2023-03-05T03:47:55;5.50;;;1.70;;
2123;SDS011;1068;52.460;13.528;2023-03-05T03:50:22;5.57;;;2.35;;
2123;SDS011;1068;52.460;13.528;2023-03-05T03:52:50;5.65;;;1.50;;
2123;SDS011;1068;52.460;13.528;2023-03-05T03:55:17;7.25;;;1.60;;
2123;SDS011;1068;52.460;13.528;2023-03-05T03:57:44;4.22;;;1.83;;
2123;SDS011;1068;52.460;13.528;2023-03-05T04:00:11;7.72;;;1.70;;
2123;SDS011;1068;52.460;13.528;2023-03-05T04:02:39;6.47;;;1.48;;
2123;SDS011;1068;52.460;13.528;2023-03-05T04:05:08;3.15;;;1.25;;
2123;SDS011;1068;52.460;13.528;2023-03-05T04:07:35;5.63;;;1.40;;
2123;SDS011;1068;52.460;13.528;2023-03-05T04:10:02;5.20;;;1.40;;
2123;SDS011;1068;52.460;13.528;2023-03-05T04:12:29;7.40;;;1.52;;
2123;SDS011;1068;52.460;13.528;2023-03-05T04:14:56;4.72;;;1.50;;
2123;SDS011;1068;52.460;13.528;2023-03-05T04:17:24;3.50;;;1.88;;
2123;SDS011;1068;52.460;13.528;2023-03-05T04:19:51;4.53;;;1.38;;
2123;SDS011;1068;52.460;13.528;2023-03-05T04:22:19;12.60;;;2.55;;
2123;SDS011;1068;52.460;13.528;2023-03-05T04:24:46;4.97;;;1.80;;
2123;SDS011;1068;52.460;13.528;2023-03-05T04:27:13;3.05;;;1.27;;
2123;SDS011;1068;52.460;13.528;2023-03-05T04:29:40;5.93;;;1.92;;
2123;SDS011;1068;52.460;13.528;2023-03-05T04:32:07;2.72;;;1.35;;
2123;SDS011;1068;52.460;13.528;2023-03-05T04:34:35;1.85;;;1.30;;
2123;SDS011;1068;52.460;13.528;2023-03-05T04:37:02;5.45;;;1.42;;
2123;SDS011;1068;52.460;13.528;2023-03-05T04:39:30;5.25;;;2.03;;
2123;SDS011;1068;52.460;13.528;2023-03-05T04:41:57;3.63;;;1.40;;
2123;SDS011;1068;52.460;13.528;2023-03-05T04:44:24;3.10;;;1.58;;
2123;SDS011;1068;52.460;13.528;2023-03-05T04:46:52;7.78;;;1.75;;
2123;SDS011;1068;52.460;13.528;2023-03-05T04:49:19;4.70;;;1.55;;
2123;SDS011;1068;52.460;13.528;2023-03-05T04:51:46;3.75;;;1.42;;
2123;SDS011;1068;52.460;13.528;2023-03-05T04:54:13;3.30;;;1.20;;
2123;SDS011;1068;52.460;13.528;2023-03-05T04:56:42;4.05;;;1.70;;
2123;SDS011;1068;52.460;13.528;2023-03-05T04:59:11;6.53;;;1.60;;
2123;SDS011;1068;52.460;13.528;2023-03-05T05:01:38;7.85;;;1.70;;
2123;SDS011;1068;52.460;13.528;2023-03-05T05:04:05;6.40;;;1.63;;
2123;SDS011;1068;52.460;13.528;2023-03-05T05:06:32;1.48;;;1.25;;
2123;SDS011;1068;52.460;13.528;2023-03-05T05:08:59;4.25;;;1.42;;
2123;SDS011;1068;52.460;13.528;2023-03-05T05:11:26;8.52;;;1.60;;
2123;SDS011;1068;52.460;13.528;2023-03-05T05:13:55;5.07;;;2.03;;
2123;SDS011;1068;52.460;13.528;2023-03-05T05:16:22;3.42;;;1.92;;
2123;SDS011;1068;52.460;13.528;2023-03-05T05:18:49;7.68;;;1.75;;
2123;SDS011;1068;52.460;13.528;2023-03-05T05:21:16;2.72;;;2.53;;
2123;SDS011;1068;52.460;13.528;2023-03-05T05:23:44;8.27;;;2.03;;
2123;SDS011;1068;52.460;13.528;2023-03-05T05:26:11;6.40;;;1.27;;
2123;SDS011;1068;52.460;13.528;2023-03-05T05:28:39;4.65;;;1.90;;
2123;SDS011;1068;52.460;13.528;2023-03-05T05:31:09;3.15;;;1.30;;
2123;SDS011;1068;52.460;13.528;2023-03-05T05:33:36;10.82;;;1.63;;
2123;SDS011;1068;52.460;13.528;2023-03-05T05:36:04;7.82;;;1.60;;
2123;SDS011;1068;52.460;13.528;2023-03-05T05:38:31;6.88;;;1.65;;
2123;SDS011;1068;52.460;13.528;2023-03-05T05:41:02;6.20;;;1.70;;
2123;SDS011;1068;52.460;13.528;2023-03-05T05:43:30;4.07;;;1.48;;
2123;SDS011;1068;52.460;13.528;2023-03-05T05:45:58;4.03;;;1.30;;
2123;SDS011;1068;52.460;13.528;2023-03-05T05:48:26;12.13;;;1.30;;
2123;SDS011;1068;52.460;13.528;2023-03-05T05:50:53;4.47;;;1.48;;
2123;SDS011;1068;52.460;13.528;2023-03-05T05:53:20;4.43;;;1.60;;
2123;SDS011;1068;52.460;13.528;2023-03-05T05:55:47;6.00;;;1.40;;
2123;SDS011;1068;52.460;13.528;2023-03-05T05:58:14;4.97;;;1.90;;
2123;SDS011;1068;52.460;13.528;2023-03-05T06:00:41;7.13;;;1.95;;
2123;SDS011;1068;52.460;13.528;2023-03-05T06:03:08;7.57;;;2.03;;
2123;SDS011;1068;52.460;13.528;2023-03-05T06:05:37;5.25;;;1.88;;
2123;SDS011;1068;52.460;13.528;2023-03-05T06:08:04;3.10;;;1.50;;
2123;SDS011;1068;52.460;13.528;2023-03-05T06:10:31;4.80;;;1.48;;
2123;SDS011;1068;52.460;13.528;2023-03-05T06:12:58;4.60;;;1.90;;
2123;SDS011;1068;52.460;13.528;2023-03-05T06:15:25;4.47;;;1.80;;
2123;SDS011;1068;52.460;13.528;2023-03-05T06:17:52;4.30;;;1.13;;
2123;SDS011;1068;52.460;13.528;2023-03-05T06:20:19;5.47;;;1.52;;
2123;SDS011;1068;52.460;13.528;2023-03-05T06:22:48;2.13;;;1.33;;
2123;SDS011;1068;52.460;13.528;2023-03-05T06:25:15;7.15;;;1.90;;
2123;SDS011;1068;52.460;13.528;2023-03-05T06:27:42;4.10;;;1.33;;
2123;SDS011;1068;52.460;13.528;2023-03-05T06:30:09;2.47;;;1.65;;
2123;SDS011;1068;52.460;13.528;2023-03-05T06:32:36;4.85;;;1.30;;
2123;SDS011;1068;52.460;13.528;2023-03-05T06:35:03;2.90;;;1.40;;
2123;SDS011;1068;52.460;13.528;2023-03-05T06:37:32;4.72;;;1.75;;
2123;SDS011;1068;52.460;13.528;2023-03-05T06:40:00;2.63;;;1.75;;
2123;SDS011;1068;52.460;13.528;2023-03-05T06:42:32;8.65;;;1.70;;
2123;SDS011;1068;52.460;13.528;2023-03-05T06:44:59;3.05;;;1.48;;
2123;SDS011;1068;52.460;13.528;2023-03-05T06:47:26;6.68;;;1.92;;
2123;SDS011;1068;52.460;13.528;2023-03-05T06:49:53;7.70;;;1.80;;
2123;SDS011;1068;52.460;13.528;2023-03-05T06:52:20;5.93;;;2.00;;
2123;SDS011;1068;52.460;13.528;2023-03-05T06:54:47;9.85;;;2.08;;
2123;SDS011;1068;52.460;13.528;2023-03-05T06:57:15;6.35;;;1.98;;
2123;SDS011;1068;52.460;13.528;2023-03-05T06:59:42;4.32;;;1.63;;
2123;SDS011;1068;52.460;13.528;2023-03-05T07:02:09;5.85;;;1.77;;
2123;SDS011;1068;52.460;13.528;2023-03-05T07:04:37;2.10;;;1.20;;
2123;SDS011;1068;52.460;13.528;2023-03-05T07:07:04;6.00;;;1.75;;
2123;SDS011;1068;52.460;13.528;2023-03-05T07:09:31;9.68;;;2.20;;
2123;SDS011;1068;52.460;13.528;2023-03-05T07:11:58;7.25;;;1.48;;
2123;SDS011;1068;52.460;13.528;2023-03-05T07:14:27;5.80;;;2.00;;
2123;SDS011;1068;52.460;13.528;2023-03-05T07:16:54;8.30;;;1.92;;
2123;SDS011;1068;52.460;13.528;2023-03-05T07:19:21;3.17;;;2.05;;
2123;SDS011;1068;52.460;13.528;2023-03-05T07:21:48;7.13;;;2.78;;
2123;SDS011;1068;52.460;13.528;2023-03-05T07:24:14;4.18;;;1.83;;
2123;SDS011;1068;52.460;13.528;2023-03-05T07:26:42;6.65;;;1.80;;
2123;SDS011;1068;52.460;13.528;2023-03-05T07:29:08;5.53;;;2.78;;
2123;SDS011;1068;52.460;13.528;2023-03-05T07:31:37;5.80;;;1.60;;
2123;SDS011;1068;52.460;13.528;2023-03-05T07:34:04;6.43;;;1.40;;
2123;SDS011;1068;52.460;13.528;2023-03-05T07:36:31;2.70;;;1.20;;
2123;SDS011;1068;52.460;13.528;2023-03-05T07:38:58;4.78;;;1.40;;
2123;SDS011;1068;52.460;13.528;2023-03-05T07:41:26;2.83;;;1.52;;
2123;SDS011;1068;52.460;13.528;2023-03-05T07:43:53;4.30;;;1.70;;
2123;SDS011;1068;52.460;13.528;2023-03-05T07:46:21;6.22;;;1.60;;
2123;SDS011;1068;52.460;13.528;2023-03-05T07:48:50;3.10;;;1.50;;
2123;SDS011;1068;52.460;13.528;2023-03-05T07:51:19;3.25;;;1.35;;
2123;SDS011;1068;52.460;13.528;2023-03-05T07:53:46;2.25;;;1.15;;
2123;SDS011;1068;52.460;13.528;2023-03-05T07:56:19;2.17;;;1.73;;
2123;SDS011;1068;52.460;13.528;2023-03-05T07:58:46;4.88;;;1.75;;
2123;SDS011;1068;52.460;13.528;2023-03-05T08:01:13;9.50;;;2.00;;
2123;SDS011;1068;52.460;13.528;2023-03-05T08:03:41;6.53;;;1.50;;
2123;SDS011;1068;52.460;13.528;2023-03-05T08:06:10;3.38;;;2.67;;
2123;SDS011;1068;52.460;13.528;2023-03-05T08:08:37;3.33;;;3.08;;
2123;SDS011;1068;52.460;13.528;2023-03-05T08:11:04;3.78;;;1.75;;
2123;SDS011;1068;52.460;13.528;2023-03-05T08:13:32;6.75;;;1.70;;
2123;SDS011;1068;52.460;13.528;2023-03-05T08:16:02;6.15;;;1.30;;
2123;SDS011;1068;52.460;13.528;2023-03-05T08:18:29;3.40;;;1.00;;
2123;SDS011;1068;52.460;13.528;2023-03-05T08:20:56;4.97;;;1.67;;
2123;SDS011;1068;52.460;13.528;2023-03-05T08:23:25;4.95;;;1.65;;
2123;SDS011;1068;52.460;13.528;2023-03-05T08:25:53;2.05;;;1.33;;
2123;SDS011;1068;52.460;13.528;2023-03-05T08:28:20;2.63;;;1.70;;
2123;SDS011;1068;52.460;13.528;2023-03-05T08:30:47;2.92;;;1.70;;
2123;SDS011;1068;52.460;13.528;2023-03-05T08:33:14;2.28;;;1.23;;
2123;SDS011;1068;52.460;13.528;2023-03-05T08:35:42;5.45;;;1.48;;
2123;SDS011;1068;52.460;13.528;2023-03-05T08:38:09;3.50;;;1.70;;
2123;SDS011;1068;52.460;13.528;2023-03-05T08:40:37;3.47;;;1.95;;
2123;SDS011;1068;52.460;13.528;2023-03-05T08:43:04;5.88;;;1.40;;
2123;SDS011;1068;52.460;13.528;2023-03-05T08:45:31;4.03;;;1.30;;
2123;SDS011;1068;52.460;13.528;2023-03-05T08:47:58;8.55;;;3.00;;
2123;SDS011;1068;52.460;13.528;2023-03-05T08:50:25;3.35;;;1.30;;
2123;SDS011;1068;52.460;13.528;2023-03-05T08:52:52;5.47;;;1.25;;
2123;SDS011;1068;52.460;13.528;2023-03-05T08:55:20;5.50;;;1.70;;
2123;SDS011;1068;52.460;13.528;2023-03-05T08:57:49;3.30;;;1.27;;
2123;SDS011;1068;52.460;13.528;2023-03-05T09:00:16;11.68;;;1.60;;
2123;SDS011;1068;52.460;13.528;2023-03-05T09:02:44;3.33;;;1.63;;
2123;SDS011;1068;52.460;13.528;2023-03-05T09:05:11;3.10;;;1.38;;
2123;SDS011;1068;52.460;13.528;2023-03-05T09:07:38;5.07;;;1.60;;
2123;SDS011;1068;52.460;13.528;2023-03-05T09:10:05;4.50;;;1.45;;
2123;SDS011;1068;52.460;13.528;2023-03-05T09:12:34;5.95;;;1.83;;
2123;SDS011;1068;52.460;13.528;2023-03-05T09:15:03;4.35;;;1.40;;
2123;SDS011;1068;52.460;13.528;2023-03-05T09:17:31;6.57;;;1.10;;
2123;SDS011;1068;52.460;13.528;2023-03-05T09:19:58;2.35;;;1.42;;
2123;SDS011;1068;52.460;13.528;2023-03-05T09:22:25;2.72;;;1.55;;
2123;SDS011;1068;52.460;13.528;2023-03-05T09:24:54;3.90;;;1.65;;
2123;SDS011;1068;52.460;13.528;2023-03-05T09:27:21;2.55;;;1.40;;
2123;SDS011;1068;52.460;13.528;2023-03-05T09:29:48;2.95;;;1.30;;
2123;SDS011;1068;52.460;13.528;2023-03-05T09:32:18;2.35;;;1.20;;
2123;SDS011;1068;52.460;13.528;2023-03-05T09:34:45;3.45;;;1.20;;
2123;SDS011;1068;52.460;13.528;2023-03-05T09:37:12;3.65;;;1.17;;
2123;SDS011;1068;52.460;13.528;2023-03-05T09:39:39;2.08;;;1.33;;
2123;SDS011;1068;52.460;13.528;2023-03-05T09:42:11;4.68;;;1.48;;
2123;SDS011;1068;52.460;13.528;2023-03-05T09:44:46;3.05;;;1.52;;
2123;SDS011;1068;52.460;13.528;2023-03-05T09:47:24;4.00;;;1.73;;
2123;SDS011;1068;52.460;13.528;2023-03-05T09:49:55;3.92;;;1.10;;
2123;SDS011;1068;52.460;13.528;2023-03-05T09:52:27;2.80;;;1.20;;
2123;SDS011;1068;52.460;13.528;2023-03-05T09:54:57;3.83;;;1.00;;
2123;SDS011;1068;52.460;13.528;2023-03-05T09:57:24;3.35;;;1.38;;
2123;SDS011;1068;52.460;13.528;2023-03-05T09:59:53;5.82;;;1.88;;
2123;SDS011;1068;52.460;13.528;2023-03-05T10:02:24;1.97;;;0.90;;
2123;SDS011;1068;52.460;13.528;2023-03-05T10:04:52;2.35;;;1.20;;
2123;SDS011;1068;52.460;13.528;2023-03-05T10:07:23;3.17;;;1.30;;
2123;SDS011;1068;52.460;13.528;2023-03-05T10:09:53;1.80;;;1.20;;
2123;SDS011;1068;52.460;13.528;2023-03-05T10:12:22;6.10;;;1.55;;
2123;SDS011;1068;52.460;13.528;2023-03-05T10:14:51;3.73;;;1.20;;
2123;SDS011;1068;52.460;13.528;2023-03-05T10:17:25;1.70;;;1.30;;
2123;SDS011;1068;52.460;13.528;2023-03-05T10:19:55;3.17;;;1.50;;
2123;SDS011;1068;52.460;13.528;2023-03-05T10:22:27;1.13;;;0.90;;
2123;SDS011;1068;52.460;13.528;2023-03-05T10:24:59;2.50;;;1.10;;
2123;SDS011;1068;52.460;13.528;2023-03-05T10:27:32;2.33;;;1.10;;
2123;SDS011;1068;52.460;13.528;2023-03-05T10:30:05;2.28;;;1.48;;
2123;SDS011;1068;52.460;13.528;2023-03-05T10:32:41;5.03;;;1.70;;
2123;SDS011;1068;52.460;13.528;2023-03-05T10:35:12;5.25;;;1.70;;
2123;SDS011;1068;52.460;13.528;2023-03-05T10:40:28;1.30;;;1.10;;
2123;SDS011;1068;52.460;13.528;2023-03-05T10:42:58;3.40;;;1.50;;
2123;SDS011;1068;52.460;13.528;2023-03-05T10:45:28;1.87;;;1.40;;
2123;SDS011;1068;52.460;13.528;2023-03-05T10:48:00;4.10;;;1.30;;
2123;SDS011;1068;52.460;13.528;2023-03-05T10:50:32;3.92;;;1.33;;
2123;SDS011;1068;52.460;13.528;2023-03-05T10:53:04;2.05;;;1.80;;
2123;SDS011;1068;52.460;13.528;2023-03-05T10:55:32;2.03;;;1.42;;
2123;SDS011;1068;52.460;13.528;2023-03-05T10:57:59;2.03;;;1.00;;
2123;SDS011;1068;52.460;13.528;2023-03-05T11:00:27;1.95;;;1.40;;
2123;SDS011;1068;52.460;13.528;2023-03-05T11:02:57;6.03;;;1.52;;
2123;SDS011;1068;52.460;13.528;2023-03-05T11:05:43;6.63;;;1.30;;
2123;SDS011;1068;52.460;13.528;2023-03-05T11:08:28;5.30;;;1.80;;
2123;SDS011;1068;52.460;13.528;2023-03-05T11:11:02;2.88;;;1.60;;
2123;SDS011;1068;52.460;13.528;2023-03-05T11:13:30;7.47;;;1.80;;
2123;SDS011;1068;52.460;13.528;2023-03-05T11:15:58;6.32;;;1.30;;
2123;SDS011;1068;52.460;13.528;2023-03-05T11:18:26;5.10;;;1.33;;
2123;SDS011;1068;52.460;13.528;2023-03-05T11:21:07;1.50;;;1.40;;
2123;SDS011;1068;52.460;13.528;2023-03-05T11:23:34;2.10;;;1.85;;
2123;SDS011;1068;52.460;13.528;2023-03-05T11:26:02;3.97;;;1.58;;
2123;SDS011;1068;52.460;13.528;2023-03-05T11:28:31;4.20;;;2.55;;
2123;SDS011;1068;52.460;13.528;2023-03-05T11:31:01;5.07;;;2.42;;
2123;SDS011;1068;52.460;13.528;2023-03-05T11:33:28;3.92;;;1.75;;
2123;SDS011;1068;52.460;13.528;2023-03-05T11:36:18;5.82;;;1.95;;
2123;SDS011;1068;52.460;13.528;2023-03-05T11:38:49;1.95;;;1.48;;
2123;SDS011;1068;52.460;13.528;2023-03-05T11:41:17;5.38;;;1.67;;
2123;SDS011;1068;52.460;13.528;2023-03-05T11:43:46;1.90;;;1.50;;
2123;SDS011;1068;52.460;13.528;2023-03-05T11:46:14;3.00;;;1.58;;
2123;SDS011;1068;52.460;13.528;2023-03-05T11:48:42;2.40;;;1.80;;
2123;SDS011;1068;52.460;13.528;2023-03-05T11:51:14;4.38;;;1.70;;
2123;SDS011;1068;52.460;13.528;2023-03-05T11:53:43;6.10;;;2.25;;
2123;SDS011;1068;52.460;13.528;2023-03-05T11:56:13;3.30;;;1.50;;
2123;SDS011;1068;52.460;13.528;2023-03-05T11:58:44;1.83;;;1.20;;
2123;SDS011;1068;52.460;13.528;2023-03-05T12:01:13;4.88;;;1.63;;
2123;SDS011;1068;52.460;13.528;2023-03-05T12:03:41;1.50;;;1.10;;
2123;SDS011;1068;52.460;13.528;2023-03-05T12:06:09;2.17;;;1.35;;
2123;SDS011;1068;52.460;13.528;2023-03-05T12:08:41;3.08;;;1.60;;
2123;SDS011;1068;52.460;13.528;2023-03-05T12:11:12;3.22;;;1.20;;
2123;SDS011;1068;52.460;13.528;2023-03-05T12:13:42;2.35;;;2.15;;
2123;SDS011;1068;52.460;13.528;2023-03-05T12:16:13;2.67;;;1.50;;
2123;SDS011;1068;52.460;13.528;2023-03-05T12:18:46;1.70;;;1.60;;
2123;SDS011;1068;52.460;13.528;2023-03-05T12:21:22;1.60;;;1.50;;
2123;SDS011;1068;52.460;13.528;2023-03-05T12:23:52;2.33;;;1.58;;
2123;SDS011;1068;52.460;13.528;2023-03-05T12:29:01;3.15;;;2.17;;
2123;SDS011;1068;52.460;13.528;2023-03-05T12:31:35;4.43;;;1.83;;
2123;SDS011;1068;52.460;13.528;2023-03-05T12:36:48;3.08;;;1.67;;
2123;SDS011;1068;52.460;13.528;2023-03-05T12:48:32;2.95;;;1.00;;
2123;SDS011;1068;52.460;13.528;2023-03-05T12:50:46;2.10;;;1.63;;
2123;SDS011;1068;52.460;13.528;2023-03-05T12:53:14;2.72;;;1.55;;
2123;SDS011;1068;52.460;13.528;2023-03-05T12:55:45;2.55;;;1.58;;
2123;SDS011;1068;52.460;13.528;2023-03-05T12:58:16;6.43;;;1.75;;
2123;SDS011;1068;52.460;13.528;2023-03-05T13:00:45;2.22;;;1.50;;
2123;SDS011;1068;52.460;13.528;2023-03-05T13:03:17;2.95;;;1.63;;
2123;SDS011;1068;52.460;13.528;2023-03-05T13:05:47;1.53;;;1.43;;
2123;SDS011;1068;52.460;13.528;2023-03-05T13:08:18;6.50;;;1.60;;
2123;SDS011;1068;52.460;13.528;2023-03-05T13:10:49;3.53;;;1.50;;
2123;SDS011;1068;52.460;13.528;2023-03-05T13:13:17;5.72;;;1.40;;
2123;SDS011;1068;52.460;13.528;2023-03-05T13:15:44;2.97;;;1.50;;
2123;SDS011;1068;52.460;13.528;2023-03-05T13:18:15;3.53;;;1.77;;
2123;SDS011;1068;52.460;13.528;2023-03-05T13:20:45;2.42;;;1.58;;
2123;SDS011;1068;52.460;13.528;2023-03-05T13:23:18;5.13;;;1.50;;
2123;SDS011;1068;52.460;13.528;2023-03-05T13:25:55;2.60;;;1.67;;
2123;SDS011;1068;52.460;13.528;2023-03-05T13:28:23;3.85;;;1.48;;
2123;SDS011;1068;52.460;13.528;2023-03-05T13:30:50;3.60;;;1.48;;
2123;SDS011;1068;52.460;13.528;2023-03-05T13:33:19;2.38;;;1.30;;
2123;SDS011;1068;52.460;13.528;2023-03-05T13:35:49;3.97;;;1.40;;
2123;SDS011;1068;52.460;13.528;2023-03-05T13:38:23;4.70;;;2.05;;
2123;SDS011;1068;52.460;13.528;2023-03-05T13:41:17;2.08;;;1.52;;
2123;SDS011;1068;52.460;13.528;2023-03-05T13:43:45;3.55;;;2.47;;
2123;SDS011;1068;52.460;13.528;2023-03-05T13:46:13;3.85;;;2.70;;
2123;SDS011;1068;52.460;13.528;2023-03-05T13:48:48;2.30;;;1.70;;
2123;SDS011;1068;52.460;13.528;2023-03-05T13:51:16;2.97;;;1.70;;
2123;SDS011;1068;52.460;13.528;2023-03-05T13:53:43;2.42;;;1.30;;
2123;SDS011;1068;52.460;13.528;2023-03-05T13:56:16;2.38;;;2.17;;
2123;SDS011;1068;52.460;13.528;2023-03-05T13:58:46;4.60;;;1.40;;
2123;SDS011;1068;52.460;13.528;2023-03-05T14:01:14;2.87;;;1.90;;
2123;SDS011;1068;52.460;13.528;2023-03-05T14:03:44;2.85;;;1.80;;
2123;SDS011;1068;52.460;13.528;2023-03-05T14:06:14;7.75;;;2.53;;
2123;SDS011;1068;52.460;13.528;2023-03-05T14:08:47;2.92;;;1.80;;
2123;SDS011;1068;52.460;13.528;2023-03-05T14:11:15;2.58;;;1.90;;
2123;SDS011;1068;52.460;13.528;2023-03-05T14:13:43;3.65;;;1.45;;
2123;SDS011;1068;52.460;13.528;2023-03-05T14:16:11;3.03;;;1.77;;
2123;SDS011;1068;52.460;13.528;2023-03-05T14:18:49;3.97;;;1.87;;
2123;SDS011;1068;52.460;13.528;2023-03-05T14:21:17;4.32;;;2.10;;
2123;SDS011;1068;52.460;13.528;2023-03-05T14:23:46;5.65;;;2.03;;
2123;SDS011;1068;52.460;13.528;2023-03-05T14:26:21;7.60;;;2.03;;
2123;SDS011;1068;52.460;13.528;2023-03-05T14:28:49;2.40;;;1.63;;
2123;SDS011;1068;52.460;13.528;2023-03-05T14:31:17;3.10;;;1.90;;
2123;SDS011;1068;52.460;13.528;2023-03-05T14:33:44;3.40;;;1.17;;
2123;SDS011;1068;52.460;13.528;2023-03-05T14:36:11;2.07;;;1.17;;
2123;SDS011;1068;52.460;13.528;2023-03-05T14:38:39;6.00;;;1.55;;
2123;SDS011;1068;52.460;13.528;2023-03-05T14:41:18;2.30;;;1.25;;
2123;SDS011;1068;52.460;13.528;2023-03-05T14:43:46;2.03;;;1.38;;
2123;SDS011;1068;52.460;13.528;2023-03-05T14:46:13;2.05;;;1.35;;
2123;SDS011;1068;52.460;13.528;2023-03-05T14:48:40;3.77;;;1.57;;
2123;SDS011;1068;52.460;13.528;2023-03-05T14:51:08;1.95;;;1.10;;
2123;SDS011;1068;52.460;13.528;2023-03-05T14:53:36;1.92;;;1.60;;
2123;SDS011;1068;52.460;13.528;2023-03-05T14:56:05;5.00;;;2.20;;
2123;SDS011;1068;52.460;13.528;2023-03-05T14:58:43;2.35;;;1.63;;
2123;SDS011;1068;52.460;13.528;2023-03-05T15:01:11;2.15;;;1.48;;
2123;SDS011;1068;52.460;13.528;2023-03-05T15:03:38;2.88;;;1.75;;
2123;SDS011;1068;52.460;13.528;2023-03-05T15:06:06;2.90;;;1.83;;
2123;SDS011;1068;52.460;13.528;2023-03-05T15:08:33;3.50;;;2.30;;
2123;SDS011;1068;52.460;13.528;2023-03-05T15:11:00;2.65;;;1.65;;
2123;SDS011;1068;52.460;13.528;2023-03-05T15:13:28;1.90;;;1.58;;
2123;SDS011;1068;52.460;13.528;2023-03-05T15:15:57;3.50;;;1.50;;
2123;SDS011;1068;52.460;13.528;2023-03-05T15:18:24;1.85;;;1.30;;
2123;SDS011;1068;52.460;13.528;2023-03-05T15:20:51;1.40;;;1.00;;
2123;SDS011;1068;52.460;13.528;2023-03-05T15:23:19;2.97;;;1.42;;
2123;SDS011;1068;52.460;13.528;2023-03-05T15:25:46;4.20;;;1.95;;